sensor_id;sensor_type;location;lat;lon;timestamp;temperature;humidity
21830;DHT22;11077;50.264;6.798;2023-07-31T00:00:48;15.10;99.90
21830;DHT22;11077;50.264;6.798;2023-07-31T00:03:17;15.10;99.90
21830;DHT22;11077;50.264;6.798;2023-07-31T00:05:44;15.20;99.90
21830;DHT22;11077;50.264;6.798;2023-07-31T00:08:11;15.10;99.90
21830;DHT22;11077;50.264;6.798;2023-07-31T00:10:38;15.20;99.90
21830;DHT22;11077;50.264;6.798;2023-07-31T00:13:05;15.10;99.90
21830;DHT22;11077;50.264;6.798;2023-07-31T00:15:32;15.20;99.90
21830;DHT22;11077;50.264;6.798;2023-07-31T00:18:00;15.20;99.90
21830;DHT22;11077;50.264;6.798;2023-07-31T00:20:29;15.20;99.90
21830;DHT22;11077;50.264;6.798;2023-07-31T00:22:56;15.20;99.90
21830;DHT22;11077;50.264;6.798;2023-07-31T00:25:23;15.20;99.90
21830;DHT22;11077;50.264;6.798;2023-07-31T00:27:50;15.20;99.90
21830;DHT22;11077;50.264;6.798;2023-07-31T00:30:17;15.30;99.90
21830;DHT22;11077;50.264;6.798;2023-07-31T00:32:44;15.30;99.90
21830;DHT22;11077;50.264;6.798;2023-07-31T00:35:12;15.30;99.90
21830;DHT22;11077;50.264;6.798;2023-07-31T00:37:40;15.30;99.90
21830;DHT22;11077;50.264;6.798;2023-07-31T00:40:08;15.30;99.90
21830;DHT22;11077;50.264;6.798;2023-07-31T00:42:35;15.30;99.90
21830;DHT22;11077;50.264;6.798;2023-07-31T00:45:03;15.30;99.90
21830;DHT22;11077;50.264;6.798;2023-07-31T00:47:30;15.30;99.90
21830;DHT22;11077;50.264;6.798;2023-07-31T00:49:58;15.30;99.90
21830;DHT22;11077;50.264;6.798;2023-07-31T00:52:25;15.30;99.90
21830;DHT22;11077;50.264;6.798;2023-07-31T00:54:54;15.30;99.90
21830;DHT22;11077;50.264;6.798;2023-07-31T00:57:21;15.30;99.90
21830;DHT22;11077;50.264;6.798;2023-07-31T00:59:50;15.30;99.90
21830;DHT22;11077;50.264;6.798;2023-07-31T01:02:18;15.30;99.90
21830;DHT22;11077;50.264;6.798;2023-07-31T01:04:45;15.30;99.90
21830;DHT22;11077;50.264;6.798;2023-07-31T01:07:22;15.30;99.90
21830;DHT22;11077;50.264;6.798;2023-07-31T01:10:00;15.30;99.90
21830;DHT22;11077;50.264;6.798;2023-07-31T01:12:31;15.30;99.90
21830;DHT22;11077;50.264;6.798;2023-07-31T01:15:08;15.20;99.90
21830;DHT22;11077;50.264;6.798;2023-07-31T01:17:37;15.20;99.90
21830;DHT22;11077;50.264;6.798;2023-07-31T01:20:07;15.20;99.90
21830;DHT22;11077;50.264;6.798;2023-07-31T01:22:59;15.20;99.90
21830;DHT22;11077;50.264;6.798;2023-07-31T01:25:50;15.20;99.90
21830;DHT22;11077;50.264;6.798;2023-07-31T01:28:23;15.20;99.90
21830;DHT22;11077;50.264;6.798;2023-07-31T01:30:50;15.20;99.90
21830;DHT22;11077;50.264;6.798;2023-07-31T01:33:18;15.20;99.90
21830;DHT22;11077;50.264;6.798;2023-07-31T01:35:47;15.20;99.90
21830;DHT22;11077;50.264;6.798;2023-07-31T01:38:16;15.20;99.90
21830;DHT22;11077;50.264;6.798;2023-07-31T01:40:51;15.20;99.90
21830;DHT22;11077;50.264;6.798;2023-07-31T01:43:20;15.20;99.90
21830;DHT22;11077;50.264;6.798;2023-07-31T01:45:47;15.20;99.90
21830;DHT22;11077;50.264;6.798;2023-07-31T01:48:14;15.20;99.90
21830;DHT22;11077;50.264;6.798;2023-07-31T01:50:43;15.10;99.90
21830;DHT22;11077;50.264;6.798;2023-07-31T01:53:10;15.10;99.90
21830;DHT22;11077;50.264;6.798;2023-07-31T01:55:38;15.10;99.90
21830;DHT22;11077;50.264;6.798;2023-07-31T01:58:32;15.10;99.90
21830;DHT22;11077;50.264;6.798;2023-07-31T02:01:18;15.10;99.90
21830;DHT22;11077;50.264;6.798;2023-07-31T02:03:48;15.10;99.90
21830;DHT22;11077;50.264;6.798;2023-07-31T02:06:35;15.10;99.90
21830;DHT22;11077;50.264;6.798;2023-07-31T02:09:08;15.10;99.90
21830;DHT22;11077;50.264;6.798;2023-07-31T02:11:43;15.20;99.90
21830;DHT22;11077;50.264;6.798;2023-07-31T02:14:49;15.20;99.90
21830;DHT22;11077;50.264;6.798;2023-07-31T02:17:23;15.20;99.90
21830;DHT22;11077;50.264;6.798;2023-07-31T02:20:20;15.30;99.90
21830;DHT22;11077;50.264;6.798;2023-07-31T02:23:13;15.30;99.90
21830;DHT22;11077;50.264;6.798;2023-07-31T02:25:47;15.20;99.90
21830;DHT22;11077;50.264;6.798;2023-07-31T02:28:29;15.30;99.90
21830;DHT22;11077;50.264;6.798;2023-07-31T02:31:02;15.30;99.90
21830;DHT22;11077;50.264;6.798;2023-07-31T02:33:38;15.30;99.90
21830;DHT22;11077;50.264;6.798;2023-07-31T02:36:44;15.20;99.90
21830;DHT22;11077;50.264;6.798;2023-07-31T02:39:32;15.30;99.90
21830;DHT22;11077;50.264;6.798;2023-07-31T02:42:16;15.20;99.90
21830;DHT22;11077;50.264;6.798;2023-07-31T02:44:48;15.20;99.90
21830;DHT22;11077;50.264;6.798;2023-07-31T02:47:39;15.20;99.90
21830;DHT22;11077;50.264;6.798;2023-07-31T02:50:11;15.20;99.90
21830;DHT22;11077;50.264;6.798;2023-07-31T02:52:53;15.20;99.90
21830;DHT22;11077;50.264;6.798;2023-07-31T02:55:39;15.20;99.90
21830;DHT22;11077;50.264;6.798;2023-07-31T02:58:14;15.20;99.90
21830;DHT22;11077;50.264;6.798;2023-07-31T03:04:06;15.10;99.90
21830;DHT22;11077;50.264;6.798;2023-07-31T03:09:42;15.10;99.90
21830;DHT22;11077;50.264;6.798;2023-07-31T03:12:16;15.10;99.90
21830;DHT22;11077;50.264;6.798;2023-07-31T03:14:51;15.10;99.90
21830;DHT22;11077;50.264;6.798;2023-07-31T03:17:54;15.00;99.90
21830;DHT22;11077;50.264;6.798;2023-07-31T03:20:32;15.10;99.90
21830;DHT22;11077;50.264;6.798;2023-07-31T03:23:27;15.10;99.90
21830;DHT22;11077;50.264;6.798;2023-07-31T03:28:51;15.00;99.90
21830;DHT22;11077;50.264;6.798;2023-07-31T03:31:18;15.00;99.90
21830;DHT22;11077;50.264;6.798;2023-07-31T03:33:46;15.00;99.90
21830;DHT22;11077;50.264;6.798;2023-07-31T03:36:16;15.00;99.90
21830;DHT22;11077;50.264;6.798;2023-07-31T03:38:43;15.00;99.90
21830;DHT22;11077;50.264;6.798;2023-07-31T03:41:11;15.10;99.90
21830;DHT22;11077;50.264;6.798;2023-07-31T03:43:39;15.10;99.90
21830;DHT22;11077;50.264;6.798;2023-07-31T03:46:09;15.10;99.90
21830;DHT22;11077;50.264;6.798;2023-07-31T03:48:37;15.10;99.90
21830;DHT22;11077;50.264;6.798;2023-07-31T03:51:05;15.10;99.90
21830;DHT22;11077;50.264;6.798;2023-07-31T03:53:37;15.10;99.90
21830;DHT22;11077;50.264;6.798;2023-07-31T03:56:05;15.10;99.90
21830;DHT22;11077;50.264;6.798;2023-07-31T03:58:32;15.10;99.90
21830;DHT22;11077;50.264;6.798;2023-07-31T04:01:04;15.10;99.90
21830;DHT22;11077;50.264;6.798;2023-07-31T04:03:33;15.10;99.90
21830;DHT22;11077;50.264;6.798;2023-07-31T04:06:07;15.00;99.90
21830;DHT22;11077;50.264;6.798;2023-07-31T04:08:39;15.10;99.90
21830;DHT22;11077;50.264;6.798;2023-07-31T04:11:23;15.10;99.90
21830;DHT22;11077;50.264;6.798;2023-07-31T04:14:06;15.10;99.90
21830;DHT22;11077;50.264;6.798;2023-07-31T04:16:34;15.10;99.90
21830;DHT22;11077;50.264;6.798;2023-07-31T04:19:02;15.10;99.90
21830;DHT22;11077;50.264;6.798;2023-07-31T04:21:33;15.10;99.90
21830;DHT22;11077;50.264;6.798;2023-07-31T04:24:07;15.10;99.90
21830;DHT22;11077;50.264;6.798;2023-07-31T04:26:38;15.10;99.90
21830;DHT22;11077;50.264;6.798;2023-07-31T04:29:51;15.10;99.90
21830;DHT22;11077;50.264;6.798;2023-07-31T04:35:14;15.20;99.90
21830;DHT22;11077;50.264;6.798;2023-07-31T04:37:42;15.10;99.90
21830;DHT22;11077;50.264;6.798;2023-07-31T04:40:12;15.10;99.90
21830;DHT22;11077;50.264;6.798;2023-07-31T04:42:39;15.10;99.90
21830;DHT22;11077;50.264;6.798;2023-07-31T04:45:08;15.10;99.90
21830;DHT22;11077;50.264;6.798;2023-07-31T04:47:36;15.10;99.90
21830;DHT22;11077;50.264;6.798;2023-07-31T04:50:12;15.10;99.90
21830;DHT22;11077;50.264;6.798;2023-07-31T04:52:52;15.10;99.90
21830;DHT22;11077;50.264;6.798;2023-07-31T04:55:29;15.00;99.90
21830;DHT22;11077;50.264;6.798;2023-07-31T04:57:59;15.00;99.90
21830;DHT22;11077;50.264;6.798;2023-07-31T05:00:30;15.00;99.90
21830;DHT22;11077;50.264;6.798;2023-07-31T05:03:08;15.00;99.90
21830;DHT22;11077;50.264;6.798;2023-07-31T05:05:53;15.00;99.90
21830;DHT22;11077;50.264;6.798;2023-07-31T05:08:20;14.90;99.90
21830;DHT22;11077;50.264;6.798;2023-07-31T05:10:48;15.00;99.90
21830;DHT22;11077;50.264;6.798;2023-07-31T05:13:16;15.00;99.90
21830;DHT22;11077;50.264;6.798;2023-07-31T05:15:43;15.00;99.90
21830;DHT22;11077;50.264;6.798;2023-07-31T05:18:11;14.90;99.90
21830;DHT22;11077;50.264;6.798;2023-07-31T05:20:39;14.90;99.90
21830;DHT22;11077;50.264;6.798;2023-07-31T05:23:06;15.00;99.90
21830;DHT22;11077;50.264;6.798;2023-07-31T05:25:34;14.90;99.90
21830;DHT22;11077;50.264;6.798;2023-07-31T05:28:05;14.90;99.90
21830;DHT22;11077;50.264;6.798;2023-07-31T05:30:32;14.90;99.90
21830;DHT22;11077;50.264;6.798;2023-07-31T05:33:00;15.00;99.90
21830;DHT22;11077;50.264;6.798;2023-07-31T05:35:27;15.00;99.90
21830;DHT22;11077;50.264;6.798;2023-07-31T05:37:54;15.00;99.90
21830;DHT22;11077;50.264;6.798;2023-07-31T05:40:21;15.00;99.90
21830;DHT22;11077;50.264;6.798;2023-07-31T05:42:49;15.00;99.90
21830;DHT22;11077;50.264;6.798;2023-07-31T05:45:18;15.00;99.90
21830;DHT22;11077;50.264;6.798;2023-07-31T05:47:46;15.00;99.90
21830;DHT22;11077;50.264;6.798;2023-07-31T05:50:14;15.00;99.90
21830;DHT22;11077;50.264;6.798;2023-07-31T05:52:41;15.00;99.90
21830;DHT22;11077;50.264;6.798;2023-07-31T05:55:12;15.10;99.90
21830;DHT22;11077;50.264;6.798;2023-07-31T05:57:41;15.00;99.90
21830;DHT22;11077;50.264;6.798;2023-07-31T06:00:09;15.00;99.90
21830;DHT22;11077;50.264;6.798;2023-07-31T06:02:40;15.00;99.90
21830;DHT22;11077;50.264;6.798;2023-07-31T06:05:08;15.00;99.90
21830;DHT22;11077;50.264;6.798;2023-07-31T06:07:36;15.00;99.90
21830;DHT22;11077;50.264;6.798;2023-07-31T06:10:04;15.00;99.90
21830;DHT22;11077;50.264;6.798;2023-07-31T06:12:31;15.10;99.90
21830;DHT22;11077;50.264;6.798;2023-07-31T06:14:59;15.10;99.90
21830;DHT22;11077;50.264;6.798;2023-07-31T06:17:26;15.10;99.90
21830;DHT22;11077;50.264;6.798;2023-07-31T06:19:55;15.10;99.90
21830;DHT22;11077;50.264;6.798;2023-07-31T06:22:22;15.20;99.90
21830;DHT22;11077;50.264;6.798;2023-07-31T06:24:49;15.20;99.90
21830;DHT22;11077;50.264;6.798;2023-07-31T06:27:17;15.20;99.90
21830;DHT22;11077;50.264;6.798;2023-07-31T06:29:44;15.20;99.90
21830;DHT22;11077;50.264;6.798;2023-07-31T06:32:11;15.20;99.90
21830;DHT22;11077;50.264;6.798;2023-07-31T06:34:39;15.30;99.90
21830;DHT22;11077;50.264;6.798;2023-07-31T06:37:07;15.30;99.90
21830;DHT22;11077;50.264;6.798;2023-07-31T06:39:35;15.20;99.90
21830;DHT22;11077;50.264;6.798;2023-07-31T06:42:03;15.30;99.90
21830;DHT22;11077;50.264;6.798;2023-07-31T06:44:31;15.30;99.90
21830;DHT22;11077;50.264;6.798;2023-07-31T06:46:58;15.30;99.90
21830;DHT22;11077;50.264;6.798;2023-07-31T06:49:26;15.30;99.90
21830;DHT22;11077;50.264;6.798;2023-07-31T06:51:55;15.30;99.90
21830;DHT22;11077;50.264;6.798;2023-07-31T06:54:26;15.30;99.90
21830;DHT22;11077;50.264;6.798;2023-07-31T06:56:55;15.30;99.90
21830;DHT22;11077;50.264;6.798;2023-07-31T06:59:23;15.40;99.90
21830;DHT22;11077;50.264;6.798;2023-07-31T07:01:51;15.40;99.90
21830;DHT22;11077;50.264;6.798;2023-07-31T07:04:18;15.50;99.90
21830;DHT22;11077;50.264;6.798;2023-07-31T07:06:46;15.60;99.90
21830;DHT22;11077;50.264;6.798;2023-07-31T07:09:13;15.60;99.90
21830;DHT22;11077;50.264;6.798;2023-07-31T07:11:42;15.70;99.90
21830;DHT22;11077;50.264;6.798;2023-07-31T07:14:10;15.70;99.90
21830;DHT22;11077;50.264;6.798;2023-07-31T07:16:38;15.60;99.90
21830;DHT22;11077;50.264;6.798;2023-07-31T07:19:06;15.60;99.90
21830;DHT22;11077;50.264;6.798;2023-07-31T07:21:34;15.60;99.90
21830;DHT22;11077;50.264;6.798;2023-07-31T07:24:01;15.60;99.90
21830;DHT22;11077;50.264;6.798;2023-07-31T07:26:29;15.70;99.90
21830;DHT22;11077;50.264;6.798;2023-07-31T07:28:58;15.70;99.90
21830;DHT22;11077;50.264;6.798;2023-07-31T07:31:28;15.70;99.90
21830;DHT22;11077;50.264;6.798;2023-07-31T07:33:56;15.70;99.90
21830;DHT22;11077;50.264;6.798;2023-07-31T07:36:23;15.70;99.90
21830;DHT22;11077;50.264;6.798;2023-07-31T07:38:50;15.70;99.90
21830;DHT22;11077;50.264;6.798;2023-07-31T07:41:18;15.60;99.90
21830;DHT22;11077;50.264;6.798;2023-07-31T07:43:45;15.60;99.90
21830;DHT22;11077;50.264;6.798;2023-07-31T07:46:14;15.60;99.90
21830;DHT22;11077;50.264;6.798;2023-07-31T07:48:44;15.60;99.90
21830;DHT22;11077;50.264;6.798;2023-07-31T07:51:11;15.60;99.90
21830;DHT22;11077;50.264;6.798;2023-07-31T07:53:39;15.60;99.90
21830;DHT22;11077;50.264;6.798;2023-07-31T07:56:08;15.60;99.90
21830;DHT22;11077;50.264;6.798;2023-07-31T07:58:35;15.60;99.90
21830;DHT22;11077;50.264;6.798;2023-07-31T08:01:03;15.60;99.90
21830;DHT22;11077;50.264;6.798;2023-07-31T08:03:33;15.60;99.90
21830;DHT22;11077;50.264;6.798;2023-07-31T08:06:01;15.60;99.90
21830;DHT22;11077;50.264;6.798;2023-07-31T08:08:29;15.70;99.90
21830;DHT22;11077;50.264;6.798;2023-07-31T08:10:56;15.70;99.90
21830;DHT22;11077;50.264;6.798;2023-07-31T08:13:24;15.80;99.90
21830;DHT22;11077;50.264;6.798;2023-07-31T08:15:51;15.90;99.90
21830;DHT22;11077;50.264;6.798;2023-07-31T08:18:19;15.90;99.90
21830;DHT22;11077;50.264;6.798;2023-07-31T08:20:48;16.00;99.90
21830;DHT22;11077;50.264;6.798;2023-07-31T08:23:15;16.00;99.90
21830;DHT22;11077;50.264;6.798;2023-07-31T08:25:45;16.00;99.90
21830;DHT22;11077;50.264;6.798;2023-07-31T08:28:19;16.10;99.90
21830;DHT22;11077;50.264;6.798;2023-07-31T08:30:47;16.10;99.90
21830;DHT22;11077;50.264;6.798;2023-07-31T08:33:16;16.20;99.90
21830;DHT22;11077;50.264;6.798;2023-07-31T08:35:43;16.20;99.90
21830;DHT22;11077;50.264;6.798;2023-07-31T08:38:14;16.20;99.90
21830;DHT22;11077;50.264;6.798;2023-07-31T08:40:42;16.10;99.90
21830;DHT22;11077;50.264;6.798;2023-07-31T08:43:11;16.30;99.90
21830;DHT22;11077;50.264;6.798;2023-07-31T08:45:39;16.30;99.90
21830;DHT22;11077;50.264;6.798;2023-07-31T08:48:09;16.30;99.90
21830;DHT22;11077;50.264;6.798;2023-07-31T08:50:38;16.40;99.90
21830;DHT22;11077;50.264;6.798;2023-07-31T08:53:06;16.40;99.90
21830;DHT22;11077;50.264;6.798;2023-07-31T08:58:04;16.50;99.90
21830;DHT22;11077;50.264;6.798;2023-07-31T09:00:36;16.60;99.90
21830;DHT22;11077;50.264;6.798;2023-07-31T09:03:07;16.60;99.90
21830;DHT22;11077;50.264;6.798;2023-07-31T09:05:39;16.60;99.90
21830;DHT22;11077;50.264;6.798;2023-07-31T09:08:09;16.60;99.90
21830;DHT22;11077;50.264;6.798;2023-07-31T09:10:42;16.60;99.90
21830;DHT22;11077;50.264;6.798;2023-07-31T09:13:12;16.70;99.90
21830;DHT22;11077;50.264;6.798;2023-07-31T09:15:39;16.70;99.90
21830;DHT22;11077;50.264;6.798;2023-07-31T09:18:22;16.70;99.90
21830;DHT22;11077;50.264;6.798;2023-07-31T09:21:01;16.80;99.90
21830;DHT22;11077;50.264;6.798;2023-07-31T09:23:41;16.80;99.90
21830;DHT22;11077;50.264;6.798;2023-07-31T09:26:10;16.90;99.90
21830;DHT22;11077;50.264;6.798;2023-07-31T09:28:38;16.90;99.90
21830;DHT22;11077;50.264;6.798;2023-07-31T09:31:09;17.00;99.90
21830;DHT22;11077;50.264;6.798;2023-07-31T09:33:54;17.10;99.90
21830;DHT22;11077;50.264;6.798;2023-07-31T09:36:25;17.20;99.90
21830;DHT22;11077;50.264;6.798;2023-07-31T09:39:02;17.30;99.90
21830;DHT22;11077;50.264;6.798;2023-07-31T09:41:44;17.40;99.90
21830;DHT22;11077;50.264;6.798;2023-07-31T09:44:22;17.50;99.90
21830;DHT22;11077;50.264;6.798;2023-07-31T09:47:25;17.60;99.90
21830;DHT22;11077;50.264;6.798;2023-07-31T09:50:01;17.60;99.90
21830;DHT22;11077;50.264;6.798;2023-07-31T09:52:36;17.90;99.90
21830;DHT22;11077;50.264;6.798;2023-07-31T09:55:08;18.00;99.90
21830;DHT22;11077;50.264;6.798;2023-07-31T09:58:07;18.10;99.90
21830;DHT22;11077;50.264;6.798;2023-07-31T10:00:38;18.20;99.90
21830;DHT22;11077;50.264;6.798;2023-07-31T10:03:09;18.20;99.90
21830;DHT22;11077;50.264;6.798;2023-07-31T10:05:39;18.30;99.90
21830;DHT22;11077;50.264;6.798;2023-07-31T10:08:16;18.20;99.90
21830;DHT22;11077;50.264;6.798;2023-07-31T10:10:46;18.20;99.90
21830;DHT22;11077;50.264;6.798;2023-07-31T10:13:15;18.10;99.90
21830;DHT22;11077;50.264;6.798;2023-07-31T10:15:48;18.00;99.90
21830;DHT22;11077;50.264;6.798;2023-07-31T10:18:18;17.90;99.90
21830;DHT22;11077;50.264;6.798;2023-07-31T10:20:50;17.70;99.90
21830;DHT22;11077;50.264;6.798;2023-07-31T10:23:21;17.60;99.90
21830;DHT22;11077;50.264;6.798;2023-07-31T10:25:55;17.50;99.90
21830;DHT22;11077;50.264;6.798;2023-07-31T10:28:36;17.50;99.90
21830;DHT22;11077;50.264;6.798;2023-07-31T10:31:12;17.60;99.90
21830;DHT22;11077;50.264;6.798;2023-07-31T10:33:51;17.60;99.90
21830;DHT22;11077;50.264;6.798;2023-07-31T10:36:20;17.60;99.90
21830;DHT22;11077;50.264;6.798;2023-07-31T10:38:52;17.50;99.90
21830;DHT22;11077;50.264;6.798;2023-07-31T10:41:29;17.60;99.90
21830;DHT22;11077;50.264;6.798;2023-07-31T10:44:08;17.60;99.90
21830;DHT22;11077;50.264;6.798;2023-07-31T10:46:39;17.50;99.90
21830;DHT22;11077;50.264;6.798;2023-07-31T10:49:12;17.50;99.90
21830;DHT22;11077;50.264;6.798;2023-07-31T10:51:50;17.50;99.90
21830;DHT22;11077;50.264;6.798;2023-07-31T10:54:27;17.50;99.90
21830;DHT22;11077;50.264;6.798;2023-07-31T10:56:55;17.60;99.90
21830;DHT22;11077;50.264;6.798;2023-07-31T10:59:42;17.60;99.90
21830;DHT22;11077;50.264;6.798;2023-07-31T11:02:28;17.60;99.90
21830;DHT22;11077;50.264;6.798;2023-07-31T11:05:51;17.70;99.90
21830;DHT22;11077;50.264;6.798;2023-07-31T11:09:36;17.80;99.90
21830;DHT22;11077;50.264;6.798;2023-07-31T11:12:20;17.80;99.90
21830;DHT22;11077;50.264;6.798;2023-07-31T11:15:00;17.70;99.90
21830;DHT22;11077;50.264;6.798;2023-07-31T11:17:36;17.70;99.90
21830;DHT22;11077;50.264;6.798;2023-07-31T11:20:14;17.60;99.90
21830;DHT22;11077;50.264;6.798;2023-07-31T11:22:41;17.60;99.90
21830;DHT22;11077;50.264;6.798;2023-07-31T11:25:18;17.70;99.90
21830;DHT22;11077;50.264;6.798;2023-07-31T11:27:48;18.00;99.90
21830;DHT22;11077;50.264;6.798;2023-07-31T11:30:25;18.30;99.90
21830;DHT22;11077;50.264;6.798;2023-07-31T11:32:52;18.40;99.90
21830;DHT22;11077;50.264;6.798;2023-07-31T11:35:21;18.60;99.90
21830;DHT22;11077;50.264;6.798;2023-07-31T11:37:49;18.60;99.90
21830;DHT22;11077;50.264;6.798;2023-07-31T11:40:21;18.50;99.90
21830;DHT22;11077;50.264;6.798;2023-07-31T11:43:02;18.50;99.90
21830;DHT22;11077;50.264;6.798;2023-07-31T11:45:38;18.60;99.90
21830;DHT22;11077;50.264;6.798;2023-07-31T11:48:40;18.60;99.90
21830;DHT22;11077;50.264;6.798;2023-07-31T11:51:20;18.60;99.90
21830;DHT22;11077;50.264;6.798;2023-07-31T11:54:28;18.70;99.90
21830;DHT22;11077;50.264;6.798;2023-07-31T11:57:09;18.70;99.90
21830;DHT22;11077;50.264;6.798;2023-07-31T12:00:33;18.60;99.90
21830;DHT22;11077;50.264;6.798;2023-07-31T12:22:35;18.40;99.90
21830;DHT22;11077;50.264;6.798;2023-07-31T12:25:43;18.20;99.90
21830;DHT22;11077;50.264;6.798;2023-07-31T12:29:19;18.10;99.90
21830;DHT22;11077;50.264;6.798;2023-07-31T12:32:30;18.00;99.90
21830;DHT22;11077;50.264;6.798;2023-07-31T12:34:59;17.90;99.90
21830;DHT22;11077;50.264;6.798;2023-07-31T12:37:34;17.80;99.90
21830;DHT22;11077;50.264;6.798;2023-07-31T12:40:05;17.70;99.90
21830;DHT22;11077;50.264;6.798;2023-07-31T12:42:32;17.50;99.90
21830;DHT22;11077;50.264;6.798;2023-07-31T12:45:08;17.40;99.90
21830;DHT22;11077;50.264;6.798;2023-07-31T12:47:38;17.30;99.90
21830;DHT22;11077;50.264;6.798;2023-07-31T12:50:09;17.20;99.90
21830;DHT22;11077;50.264;6.798;2023-07-31T12:52:38;17.20;99.90
21830;DHT22;11077;50.264;6.798;2023-07-31T12:55:06;17.20;99.90
21830;DHT22;11077;50.264;6.798;2023-07-31T12:57:39;17.10;99.90
21830;DHT22;11077;50.264;6.798;2023-07-31T13:00:11;17.00;99.90
21830;DHT22;11077;50.264;6.798;2023-07-31T13:02:38;16.90;99.90
21830;DHT22;11077;50.264;6.798;2023-07-31T13:05:10;16.80;99.90
21830;DHT22;11077;50.264;6.798;2023-07-31T13:07:42;16.80;99.90
21830;DHT22;11077;50.264;6.798;2023-07-31T13:10:21;16.80;99.90
21830;DHT22;11077;50.264;6.798;2023-07-31T13:12:53;16.80;99.90
21830;DHT22;11077;50.264;6.798;2023-07-31T13:15:24;16.70;99.90
21830;DHT22;11077;50.264;6.798;2023-07-31T13:17:53;16.60;99.90
21830;DHT22;11077;50.264;6.798;2023-07-31T13:20:22;16.70;99.90
21830;DHT22;11077;50.264;6.798;2023-07-31T13:23:00;16.60;99.90
21830;DHT22;11077;50.264;6.798;2023-07-31T13:25:28;16.60;99.90
21830;DHT22;11077;50.264;6.798;2023-07-31T13:27:58;16.60;99.90
21830;DHT22;11077;50.264;6.798;2023-07-31T13:30:31;16.60;99.90
21830;DHT22;11077;50.264;6.798;2023-07-31T13:32:58;16.50;99.90
21830;DHT22;11077;50.264;6.798;2023-07-31T13:35:25;16.50;99.90
21830;DHT22;11077;50.264;6.798;2023-07-31T13:37:55;16.50;99.90
21830;DHT22;11077;50.264;6.798;2023-07-31T13:40:22;16.40;99.90
21830;DHT22;11077;50.264;6.798;2023-07-31T13:42:51;16.40;99.90
21830;DHT22;11077;50.264;6.798;2023-07-31T13:45:19;16.40;99.90
21830;DHT22;11077;50.264;6.798;2023-07-31T13:47:47;16.40;99.90
21830;DHT22;11077;50.264;6.798;2023-07-31T13:50:17;16.40;99.90
21830;DHT22;11077;50.264;6.798;2023-07-31T13:52:47;16.50;99.90
21830;DHT22;11077;50.264;6.798;2023-07-31T13:55:15;16.50;99.90
21830;DHT22;11077;50.264;6.798;2023-07-31T13:57:43;16.60;99.90
21830;DHT22;11077;50.264;6.798;2023-07-31T14:00:12;16.50;99.90
21830;DHT22;11077;50.264;6.798;2023-07-31T14:02:39;16.60;99.90
21830;DHT22;11077;50.264;6.798;2023-07-31T14:05:08;16.50;99.90
21830;DHT22;11077;50.264;6.798;2023-07-31T14:07:36;16.60;99.90
21830;DHT22;11077;50.264;6.798;2023-07-31T14:10:04;16.60;99.90
21830;DHT22;11077;50.264;6.798;2023-07-31T14:12:34;16.50;99.90
21830;DHT22;11077;50.264;6.798;2023-07-31T14:15:01;16.50;99.90
21830;DHT22;11077;50.264;6.798;2023-07-31T14:17:28;16.50;99.90
21830;DHT22;11077;50.264;6.798;2023-07-31T14:19:57;16.50;99.90
21830;DHT22;11077;50.264;6.798;2023-07-31T14:22:28;16.50;99.90
21830;DHT22;11077;50.264;6.798;2023-07-31T14:24:58;16.40;99.90
21830;DHT22;11077;50.264;6.798;2023-07-31T14:27:26;16.40;99.90
21830;DHT22;11077;50.264;6.798;2023-07-31T14:29:54;16.30;99.90
21830;DHT22;11077;50.264;6.798;2023-07-31T14:32:22;16.30;99.90
21830;DHT22;11077;50.264;6.798;2023-07-31T14:34:53;16.30;99.90
21830;DHT22;11077;50.264;6.798;2023-07-31T14:37:26;16.20;99.90
21830;DHT22;11077;50.264;6.798;2023-07-31T14:40:15;16.20;99.90
21830;DHT22;11077;50.264;6.798;2023-07-31T14:42:42;16.20;99.90
21830;DHT22;11077;50.264;6.798;2023-07-31T14:45:12;16.20;99.90
21830;DHT22;11077;50.264;6.798;2023-07-31T14:47:39;16.10;99.90
21830;DHT22;11077;50.264;6.798;2023-07-31T14:50:11;16.10;99.90
21830;DHT22;11077;50.264;6.798;2023-07-31T14:52:40;16.10;99.90
21830;DHT22;11077;50.264;6.798;2023-07-31T14:55:10;16.00;99.90
21830;DHT22;11077;50.264;6.798;2023-07-31T14:57:40;16.10;99.90
21830;DHT22;11077;50.264;6.798;2023-07-31T15:00:08;16.00;99.90
21830;DHT22;11077;50.264;6.798;2023-07-31T15:02:38;16.10;99.90
21830;DHT22;11077;50.264;6.798;2023-07-31T15:05:07;16.10;99.90
21830;DHT22;11077;50.264;6.798;2023-07-31T15:07:34;16.10;99.90
21830;DHT22;11077;50.264;6.798;2023-07-31T15:10:02;16.10;99.90
21830;DHT22;11077;50.264;6.798;2023-07-31T15:12:30;16.20;99.90
21830;DHT22;11077;50.264;6.798;2023-07-31T15:15:00;16.20;99.90
21830;DHT22;11077;50.264;6.798;2023-07-31T15:17:32;16.20;99.90
21830;DHT22;11077;50.264;6.798;2023-07-31T15:20:07;16.20;99.90
21830;DHT22;11077;50.264;6.798;2023-07-31T15:22:42;16.30;99.90
21830;DHT22;11077;50.264;6.798;2023-07-31T15:25:10;16.30;99.90
21830;DHT22;11077;50.264;6.798;2023-07-31T15:27:42;16.30;99.90
21830;DHT22;11077;50.264;6.798;2023-07-31T15:30:14;16.30;99.90
21830;DHT22;11077;50.264;6.798;2023-07-31T15:32:43;16.30;99.90
21830;DHT22;11077;50.264;6.798;2023-07-31T15:35:18;16.30;99.90
21830;DHT22;11077;50.264;6.798;2023-07-31T15:37:46;16.30;99.90
21830;DHT22;11077;50.264;6.798;2023-07-31T15:40:15;16.30;99.90
21830;DHT22;11077;50.264;6.798;2023-07-31T15:42:43;16.30;99.90
21830;DHT22;11077;50.264;6.798;2023-07-31T15:45:11;16.20;99.90
21830;DHT22;11077;50.264;6.798;2023-07-31T15:47:44;16.10;99.90
21830;DHT22;11077;50.264;6.798;2023-07-31T15:50:15;16.10;99.90
21830;DHT22;11077;50.264;6.798;2023-07-31T15:52:45;16.10;99.90
21830;DHT22;11077;50.264;6.798;2023-07-31T15:55:18;16.00;99.90
21830;DHT22;11077;50.264;6.798;2023-07-31T15:57:47;15.90;99.90
21830;DHT22;11077;50.264;6.798;2023-07-31T16:00:16;16.00;99.90
21830;DHT22;11077;50.264;6.798;2023-07-31T16:02:49;16.00;99.90
21830;DHT22;11077;50.264;6.798;2023-07-31T16:05:22;16.00;99.90
21830;DHT22;11077;50.264;6.798;2023-07-31T16:07:54;15.90;99.90
21830;DHT22;11077;50.264;6.798;2023-07-31T16:10:25;16.00;99.90
21830;DHT22;11077;50.264;6.798;2023-07-31T16:12:53;16.00;99.90
21830;DHT22;11077;50.264;6.798;2023-07-31T16:15:21;15.90;99.90
21830;DHT22;11077;50.264;6.798;2023-07-31T16:17:50;15.90;99.90
21830;DHT22;11077;50.264;6.798;2023-07-31T16:20:18;15.90;99.90
21830;DHT22;11077;50.264;6.798;2023-07-31T16:22:45;15.90;99.90
21830;DHT22;11077;50.264;6.798;2023-07-31T16:25:15;15.80;99.90
21830;DHT22;11077;50.264;6.798;2023-07-31T16:27:44;15.80;99.90
21830;DHT22;11077;50.264;6.798;2023-07-31T16:30:14;15.80;99.90
21830;DHT22;11077;50.264;6.798;2023-07-31T16:32:42;15.80;99.90
21830;DHT22;11077;50.264;6.798;2023-07-31T16:35:15;15.80;99.90
21830;DHT22;11077;50.264;6.798;2023-07-31T16:37:45;15.70;99.90